createdAt,value
2018-10-19T00:02:22.079Z,20.07
2018-10-19T00:04:57.028Z,21.50
2018-10-19T00:07:32.009Z,21.40
2018-10-19T00:10:07.954Z,21.67
2018-10-19T00:12:43.794Z,21.07
2018-10-19T00:15:22.022Z,21.27
2018-10-19T00:17:56.715Z,22.63
2018-10-19T00:20:31.789Z,22.70
2018-10-19T00:23:07.167Z,20.70
2018-10-19T00:25:42.406Z,21.63
2018-10-19T00:28:18.300Z,20.50
2018-10-19T00:30:54.954Z,20.10
2018-10-19T00:33:29.790Z,20.13
2018-10-19T00:36:05.149Z,21.47
2018-10-19T00:38:40.346Z,20.87
2018-10-19T00:41:15.239Z,20.67
2018-10-19T00:43:50.492Z,21.20
2018-10-19T00:46:25.502Z,20.30
2018-10-19T00:49:00.698Z,21.77
2018-10-19T00:51:35.768Z,20.27
2018-10-19T00:54:10.819Z,20.40
2018-10-19T00:56:45.843Z,18.93
2018-10-19T00:59:20.791Z,20.40
2018-10-19T01:01:55.925Z,20.60
2018-10-19T01:04:30.997Z,19.50
2018-10-19T01:07:05.923Z,19.37
2018-10-19T01:09:40.867Z,18.47
2018-10-19T01:12:15.978Z,19.03
2018-10-19T01:14:50.691Z,19.50
2018-10-19T01:17:25.613Z,18.57
2018-10-19T01:20:02.008Z,18.30
2018-10-19T01:22:37.782Z,18.50
2018-10-19T01:25:12.615Z,17.90
2018-10-19T01:27:47.789Z,18.37
2018-10-19T01:30:22.790Z,17.60
2018-10-19T01:32:57.913Z,16.83
2018-10-19T01:35:32.930Z,17.50
2018-10-19T01:38:07.995Z,17.30
2018-10-19T01:40:42.725Z,17.40
2018-10-19T01:43:17.915Z,16.77
2018-10-19T01:45:57.234Z,16.50
2018-10-19T01:48:33.044Z,16.13
2018-10-19T01:51:07.970Z,17.27
2018-10-19T01:53:43.181Z,16.90
2018-10-19T01:56:18.318Z,17.13
2018-10-19T01:58:53.163Z,16.93
2018-10-19T02:01:28.517Z,17.50
2018-10-19T02:04:03.605Z,17.13
2018-10-19T02:06:38.761Z,17.93
2018-10-19T02:09:13.740Z,19.30
2018-10-19T02:11:49.065Z,19.20
2018-10-19T02:14:24.256Z,16.90
2018-10-19T02:16:59.998Z,17.90
2018-10-19T02:19:35.209Z,17.57
2018-10-19T02:22:10.054Z,18.67
2018-10-19T02:24:45.144Z,19.03
2018-10-19T02:27:20.794Z,19.20
2018-10-19T02:29:56.004Z,17.80
2018-10-19T02:32:31.442Z,19.63
2018-10-19T02:35:07.035Z,19.00
2018-10-19T02:37:42.165Z,18.83
2018-10-19T02:40:17.229Z,19.23
2018-10-19T02:42:52.606Z,20.47
2018-10-19T02:45:27.616Z,20.57
2018-10-19T02:48:03.765Z,20.73
2018-10-19T02:50:39.754Z,20.07
2018-10-19T02:53:14.985Z,22.20
2018-10-19T02:55:50.040Z,22.13
2018-10-19T02:58:25.018Z,20.77
2018-10-19T03:00:59.895Z,20.80
2018-10-19T03:03:34.738Z,21.73
2018-10-19T03:06:09.884Z,20.83
2018-10-19T03:08:44.809Z,20.83
2018-10-19T03:11:20.469Z,20.33
2018-10-19T03:13:55.701Z,20.60
2018-10-19T03:16:31.424Z,20.30
2018-10-19T03:19:06.588Z,19.20
2018-10-19T03:21:41.863Z,21.53
2018-10-19T03:24:17.647Z,20.83
2018-10-19T03:26:52.769Z,19.97
2018-10-19T03:29:27.917Z,19.70
2018-10-19T03:32:03.603Z,19.60
2018-10-19T03:34:38.642Z,18.77
2018-10-19T03:37:13.606Z,21.07
2018-10-19T03:39:48.314Z,19.97
2018-10-19T03:42:24.415Z,19.87
2018-10-19T03:44:59.586Z,19.83
2018-10-19T03:47:34.874Z,20.90
2018-10-19T03:50:09.909Z,19.00
2018-10-19T03:52:44.914Z,19.27
2018-10-19T03:55:20.337Z,20.30
2018-10-19T03:57:55.761Z,19.30
2018-10-19T04:00:31.321Z,18.90
2018-10-19T04:03:06.826Z,20.57
2018-10-19T04:05:41.747Z,18.80
2018-10-19T04:08:16.817Z,20.17
2018-10-19T04:10:51.554Z,20.00
2018-10-19T04:13:26.634Z,19.30
2018-10-19T04:16:02.019Z,17.97
2018-10-19T04:18:36.742Z,20.40
2018-10-19T04:21:11.665Z,20.00
2018-10-19T04:23:47.144Z,19.33
2018-10-19T04:26:22.372Z,19.53
2018-10-19T04:28:57.394Z,19.20
2018-10-19T04:31:32.566Z,19.83
2018-10-19T04:34:10.679Z,19.43
2018-10-19T04:36:46.576Z,19.53
2018-10-19T04:39:21.683Z,19.37
2018-10-19T04:41:56.962Z,19.07
2018-10-19T04:44:32.405Z,19.87
2018-10-19T04:47:08.021Z,19.70
2018-10-19T04:49:43.142Z,20.20
2018-10-19T04:52:18.959Z,19.80
2018-10-19T04:54:54.026Z,19.50
2018-10-19T04:57:29.121Z,20.60
2018-10-19T05:00:03.924Z,19.50
2018-10-19T05:02:39.496Z,20.47
2018-10-19T05:05:14.532Z,19.47
2018-10-19T05:07:49.695Z,20.27
2018-10-19T05:10:24.763Z,20.17
2018-10-19T05:13:00.003Z,20.03
2018-10-19T05:15:35.083Z,19.87
2018-10-19T05:18:10.823Z,20.73
2018-10-19T05:20:46.131Z,20.37
2018-10-19T05:23:21.042Z,19.63
2018-10-19T05:25:57.016Z,19.80
2018-10-19T05:28:32.920Z,22.27
2018-10-19T05:31:07.587Z,20.23
2018-10-19T05:33:42.893Z,22.13
2018-10-19T05:36:18.091Z,22.67
2018-10-19T05:38:53.226Z,20.40
2018-10-19T05:41:28.220Z,22.40
2018-10-19T05:44:03.339Z,21.30
2018-10-19T05:46:38.936Z,21.30
2018-10-19T05:49:14.244Z,22.60
2018-10-19T05:51:49.476Z,23.43
2018-10-19T05:54:26.265Z,22.93
2018-10-19T05:57:01.799Z,23.50
2018-10-19T05:59:36.882Z,23.10
2018-10-19T06:02:11.921Z,23.60
2018-10-19T06:04:46.935Z,23.70
2018-10-19T06:07:22.887Z,21.83
2018-10-19T06:09:57.993Z,23.37
2018-10-19T06:12:33.179Z,24.67
2018-10-19T06:15:09.541Z,24.03
2018-10-19T06:17:45.074Z,24.97
2018-10-19T06:20:20.206Z,23.23
2018-10-19T06:22:55.699Z,24.37
2018-10-19T06:25:30.930Z,25.20
2018-10-19T06:28:06.454Z,24.23
2018-10-19T06:30:41.603Z,24.43
2018-10-19T06:33:16.769Z,24.53
2018-10-19T06:35:52.131Z,26.20
2018-10-19T06:38:27.490Z,24.47
2018-10-19T06:41:02.521Z,25.83
2018-10-19T06:43:37.868Z,26.20
2018-10-19T06:46:12.968Z,24.57
2018-10-19T06:48:47.777Z,25.00
2018-10-19T06:51:23.149Z,26.03
2018-10-19T06:53:58.260Z,23.90
2018-10-19T06:56:33.467Z,25.07
2018-10-19T06:59:08.525Z,27.13
2018-10-19T07:01:43.694Z,26.13
2018-10-19T07:04:19.621Z,25.63
2018-10-19T07:06:54.715Z,25.13
2018-10-19T07:09:29.663Z,25.20
2018-10-19T07:12:04.852Z,26.07
2018-10-19T07:14:40.117Z,27.07
2018-10-19T07:17:15.442Z,24.40
2018-10-19T07:19:50.859Z,26.30
2018-10-19T07:22:25.980Z,27.00
2018-10-19T07:25:01.890Z,24.80
2018-10-19T07:27:37.167Z,25.30
2018-10-19T07:30:12.426Z,25.60
2018-10-19T07:32:47.760Z,26.20
2018-10-19T07:35:23.414Z,26.67
2018-10-19T07:37:58.382Z,27.50
2018-10-19T07:40:33.455Z,25.80
2018-10-19T07:43:08.489Z,26.07
2018-10-19T07:45:43.543Z,27.37
2018-10-19T07:48:18.577Z,25.10
2018-10-19T07:50:54.104Z,26.20
2018-10-19T07:53:29.162Z,26.47
2018-10-19T07:56:05.861Z,25.97
2018-10-19T07:58:40.966Z,25.93
2018-10-19T08:01:16.231Z,25.53
2018-10-19T08:03:52.038Z,25.83
2018-10-19T08:06:30.251Z,25.57
2018-10-19T08:09:09.474Z,27.30
2018-10-19T08:11:45.102Z,25.17
2018-10-19T08:14:20.101Z,27.63
2018-10-19T08:16:55.164Z,25.30
2018-10-19T08:19:30.199Z,25.47
2018-10-19T08:22:05.256Z,24.40
2018-10-19T08:24:40.323Z,26.27
2018-10-19T08:27:15.592Z,24.87
2018-10-19T08:29:51.062Z,25.23
2018-10-19T08:32:25.870Z,25.83
2018-10-19T08:35:01.984Z,25.93
2018-10-19T08:37:37.307Z,25.97
2018-10-19T08:40:12.367Z,24.80
2018-10-19T08:42:47.787Z,25.73
2018-10-19T08:45:22.559Z,25.40
2018-10-19T08:47:57.408Z,26.00
2018-10-19T08:50:33.082Z,24.33
2018-10-19T08:53:08.839Z,26.17
2018-10-19T08:55:44.155Z,25.70
2018-10-19T08:58:19.311Z,26.70
2018-10-19T09:00:54.490Z,25.10
2018-10-19T09:03:29.716Z,25.37
2018-10-19T09:06:05.631Z,25.40
2018-10-19T09:08:40.557Z,24.37
2018-10-19T09:11:15.852Z,26.30
2018-10-19T09:13:50.661Z,26.47
2018-10-19T09:16:26.399Z,27.10
2018-10-19T09:19:01.391Z,26.40
2018-10-19T09:21:36.869Z,24.40
2018-10-19T09:24:11.865Z,26.77
2018-10-19T09:26:47.698Z,25.77
2018-10-19T09:29:23.115Z,24.60
2018-10-19T09:31:58.371Z,25.77
2018-10-19T09:34:33.724Z,25.20
2018-10-19T09:37:10.230Z,25.60
2018-10-19T09:39:45.843Z,24.97
2018-10-19T09:42:21.150Z,25.53
2018-10-19T09:44:55.930Z,26.50
2018-10-19T09:47:31.531Z,24.93
2018-10-19T09:50:08.190Z,24.60
2018-10-19T09:52:43.479Z,25.80
2018-10-19T09:55:18.847Z,22.87
2018-10-19T09:57:53.997Z,23.70
2018-10-19T10:00:34.499Z,24.50
2018-10-19T10:03:09.511Z,25.17
2018-10-19T10:05:45.733Z,25.97
2018-10-19T10:08:20.908Z,25.17
2018-10-19T10:10:55.751Z,25.23
2018-10-19T10:13:30.951Z,25.77
2018-10-19T10:16:06.264Z,24.33
2018-10-19T10:18:41.082Z,24.33
2018-10-19T10:21:16.794Z,26.43
2018-10-19T10:23:51.795Z,24.80
2018-10-19T10:26:27.345Z,26.23
2018-10-19T10:29:02.285Z,26.73
2018-10-19T10:31:37.300Z,25.47
2018-10-19T10:34:12.554Z,26.77
2018-10-19T10:36:47.530Z,26.10
2018-10-19T10:39:22.659Z,24.97
2018-10-19T10:41:57.729Z,24.10
2018-10-19T10:44:32.750Z,23.50
2018-10-19T10:47:08.830Z,24.27
2018-10-19T10:49:43.914Z,25.03
2018-10-19T10:52:18.873Z,24.90
2018-10-19T10:54:54.176Z,24.23
2018-10-19T10:57:28.877Z,24.87
2018-10-19T11:00:04.203Z,25.07
2018-10-19T11:02:39.236Z,24.70
2018-10-19T11:05:15.004Z,24.20
2018-10-19T11:07:50.720Z,24.13
2018-10-19T11:10:25.684Z,24.40
2018-10-19T11:13:01.585Z,25.50
2018-10-19T11:15:36.768Z,25.50
2018-10-19T11:18:11.918Z,25.20
2018-10-19T11:20:47.024Z,25.40
2018-10-19T11:23:22.295Z,25.13
2018-10-19T11:25:57.535Z,25.20
2018-10-19T11:28:32.623Z,26.97
2018-10-19T11:31:08.167Z,25.93
2018-10-19T11:33:43.543Z,25.20
2018-10-19T11:36:18.469Z,25.70
2018-10-19T11:38:53.651Z,23.20
2018-10-19T11:41:28.674Z,24.87
2018-10-19T11:44:04.171Z,24.53
2018-10-19T11:46:39.571Z,25.20
2018-10-19T11:49:14.415Z,24.03
2018-10-19T11:51:49.557Z,25.13
2018-10-19T11:54:24.498Z,24.90
2018-10-19T11:56:59.709Z,23.63
2018-10-19T11:59:35.045Z,25.30
2018-10-19T12:02:10.795Z,24.17
2018-10-19T12:04:46.041Z,24.57
2018-10-19T12:07:21.647Z,25.93
2018-10-19T12:09:56.568Z,25.20
2018-10-19T12:12:32.235Z,23.10
2018-10-19T12:15:08.800Z,23.17
2018-10-19T12:17:44.487Z,25.20
2018-10-19T12:20:19.836Z,24.20
2018-10-19T12:22:55.195Z,24.47
2018-10-19T12:25:30.047Z,24.27
2018-10-19T12:28:05.439Z,22.93
2018-10-19T12:30:40.530Z,23.93
2018-10-19T12:33:15.351Z,24.77
2018-10-19T12:35:50.470Z,24.87
2018-10-19T12:38:25.309Z,24.43
2018-10-19T12:41:00.651Z,22.60
2018-10-19T12:43:35.879Z,24.47
2018-10-19T12:46:26.064Z,23.70
2018-10-19T12:49:01.319Z,22.87
2018-10-19T12:51:37.050Z,23.13
2018-10-19T12:54:12.196Z,23.33
2018-10-19T12:56:47.296Z,22.37
2018-10-19T12:59:22.716Z,23.57
2018-10-19T13:01:58.103Z,25.20
2018-10-19T13:04:33.041Z,22.50
2018-10-19T13:07:08.421Z,23.20
2018-10-19T13:09:43.423Z,24.53
2018-10-19T13:12:18.909Z,22.90
2018-10-19T13:14:54.655Z,23.20
2018-10-19T13:17:30.041Z,22.27
2018-10-19T13:20:05.306Z,21.83
2018-10-19T13:22:40.537Z,22.00
2018-10-19T13:25:15.851Z,21.90
2018-10-19T13:27:51.743Z,21.93
2018-10-19T13:30:28.264Z,21.93
2018-10-19T13:33:03.821Z,22.40
2018-10-19T13:35:38.873Z,21.70
2018-10-19T13:38:14.494Z,21.30
2018-10-19T13:40:50.157Z,21.80
2018-10-19T13:43:25.718Z,21.70
2018-10-19T13:46:01.426Z,22.17
2018-10-19T13:48:36.492Z,21.80
2018-10-19T13:51:11.701Z,20.50
2018-10-19T13:53:47.174Z,21.43
2018-10-19T13:56:22.106Z,22.33
2018-10-19T13:58:57.433Z,21.60
2018-10-19T14:01:32.607Z,21.03
2018-10-19T14:04:07.616Z,20.03
2018-10-19T14:06:42.675Z,18.10
2018-10-19T14:09:17.460Z,18.63
2018-10-19T14:11:52.693Z,18.80
2018-10-19T14:14:27.784Z,17.53
2018-10-19T14:17:03.146Z,16.73
2018-10-19T14:19:38.282Z,17.27
2018-10-19T14:22:13.050Z,17.00
2018-10-19T14:24:48.997Z,16.30
2018-10-19T14:27:24.069Z,16.03
2018-10-19T14:29:58.955Z,16.30
2018-10-19T14:32:33.983Z,17.70
2018-10-19T14:35:09.563Z,17.47
2018-10-19T14:37:45.595Z,18.20
2018-10-19T14:40:21.096Z,19.60
2018-10-19T14:42:56.211Z,20.77
2018-10-19T14:45:31.237Z,19.00
2018-10-19T14:48:06.372Z,19.53
2018-10-19T14:50:41.857Z,20.97
2018-10-19T14:53:16.578Z,21.00
2018-10-19T14:55:51.854Z,22.63
2018-10-19T14:58:26.677Z,21.93
2018-10-19T15:01:01.857Z,22.20
2018-10-19T15:03:36.963Z,22.03
2018-10-19T15:06:11.948Z,22.73
2018-10-19T15:08:47.098Z,21.63
2018-10-19T15:11:22.186Z,23.07
2018-10-19T15:13:57.051Z,22.70
2018-10-19T15:16:32.440Z,22.60
2018-10-19T15:19:07.755Z,23.13
2018-10-19T15:21:43.359Z,22.10
2018-10-19T15:24:18.290Z,23.90
2018-10-19T15:26:54.046Z,24.53
2018-10-19T15:29:33.773Z,24.07
2018-10-19T15:32:08.901Z,24.53
2018-10-19T15:34:43.946Z,22.97
2018-10-19T15:37:19.169Z,22.83
2018-10-19T15:39:55.188Z,24.23
2018-10-19T15:42:30.150Z,22.50
2018-10-19T15:45:07.099Z,21.50
2018-10-19T15:47:41.998Z,23.50
2018-10-19T15:50:17.573Z,23.50
2018-10-19T15:52:52.761Z,23.07
2018-10-19T15:55:27.757Z,24.70
2018-10-19T15:58:02.681Z,24.70
2018-10-19T16:00:38.373Z,25.10
2018-10-19T16:03:13.298Z,23.57
2018-10-19T16:05:48.414Z,24.50
2018-10-19T16:08:23.086Z,23.00
2018-10-19T16:10:58.515Z,25.50
2018-10-19T16:13:33.678Z,25.77
2018-10-19T16:16:09.180Z,26.67
2018-10-19T16:18:44.257Z,28.73
2018-10-19T16:21:19.172Z,28.73
2018-10-19T16:23:54.251Z,29.73
2018-10-19T16:26:29.520Z,28.07
2018-10-19T16:29:04.392Z,27.60
2018-10-19T16:31:39.428Z,27.83
2018-10-19T16:34:14.817Z,28.60
2018-10-19T16:36:50.095Z,29.37
2018-10-19T16:39:25.870Z,29.47
2018-10-19T16:42:00.888Z,29.50
2018-10-19T16:44:36.058Z,31.50
2018-10-19T16:47:11.579Z,31.07
2018-10-19T16:49:46.635Z,30.70
2018-10-19T16:52:21.692Z,28.90
2018-10-19T16:54:56.999Z,32.50
2018-10-19T16:57:32.186Z,32.03
2018-10-19T17:00:09.174Z,34.43
2018-10-19T17:02:45.146Z,35.43
2018-10-19T17:05:20.711Z,37.20
2018-10-19T17:08:01.039Z,37.77
2018-10-19T17:10:35.969Z,38.30
2018-10-19T17:13:11.940Z,38.00
2018-10-19T17:15:47.003Z,42.53
2018-10-19T17:18:22.391Z,42.50
2018-10-19T17:20:57.492Z,42.00
2018-10-19T17:23:33.113Z,41.50
2018-10-19T17:26:08.599Z,43.43
2018-10-19T17:28:43.767Z,42.03
2018-10-19T17:31:19.421Z,44.27
2018-10-19T17:33:55.191Z,41.70
2018-10-19T17:36:30.094Z,43.30
2018-10-19T17:39:08.319Z,40.90
2018-10-19T17:41:43.444Z,41.10
2018-10-19T17:44:19.283Z,42.20
2018-10-19T17:46:54.869Z,39.87
2018-10-19T17:49:31.267Z,41.40
2018-10-19T17:52:06.895Z,41.70
2018-10-19T17:54:42.258Z,40.33
2018-10-19T17:57:17.413Z,40.03
2018-10-19T17:59:52.434Z,37.53
2018-10-19T18:02:27.674Z,40.30
2018-10-19T18:05:03.801Z,39.97
2018-10-19T18:07:39.889Z,40.40
2018-10-19T18:10:20.624Z,40.80
2018-10-19T18:12:55.759Z,38.97
2018-10-19T18:15:30.886Z,37.23
2018-10-19T18:18:06.278Z,36.93
2018-10-19T18:20:41.854Z,37.37
2018-10-19T18:23:17.678Z,36.10
2018-10-19T18:25:53.271Z,37.27
2018-10-19T18:28:28.400Z,36.40
2018-10-19T18:31:04.058Z,37.10
2018-10-19T18:33:34.281Z,36.07
2018-10-19T18:36:03.397Z,35.33
2018-10-19T18:38:34.828Z,34.50
2018-10-19T18:41:04.245Z,34.90
2018-10-19T18:43:34.913Z,34.47
2018-10-19T18:46:05.962Z,33.97
2018-10-19T18:48:36.681Z,34.13
2018-10-19T18:51:08.291Z,33.33
2018-10-19T18:53:38.843Z,32.53
2018-10-19T18:56:09.660Z,30.03
2018-10-19T18:58:39.205Z,33.27
2018-10-19T19:01:08.951Z,30.10
2018-10-19T19:03:38.726Z,30.40
2018-10-19T19:06:09.039Z,30.10
2018-10-19T19:08:38.919Z,29.97
2018-10-19T19:11:08.203Z,29.57
2018-10-19T19:13:46.841Z,29.90
2018-10-19T19:16:21.470Z,28.10
2018-10-19T19:18:51.488Z,27.60
2018-10-19T19:21:21.471Z,27.77
2018-10-19T19:24:01.982Z,29.13
2018-10-19T19:26:37.234Z,25.07
2018-10-19T19:29:12.756Z,26.40
2018-10-19T19:31:48.098Z,25.27
2018-10-19T19:34:28.906Z,25.07
2018-10-19T19:36:58.580Z,24.77
2018-10-19T19:39:34.615Z,22.27
2018-10-19T19:42:15.275Z,22.50
2018-10-19T19:44:55.972Z,22.73
2018-10-19T19:47:36.281Z,19.97
2018-10-19T19:50:11.831Z,21.10
2018-10-19T19:52:47.921Z,20.83
2018-10-19T19:55:23.350Z,19.93
2018-10-19T19:57:59.440Z,18.40
2018-10-19T20:00:34.393Z,20.03
2018-10-19T20:03:07.115Z,19.03
2018-10-19T20:05:42.435Z,19.57
2018-10-19T20:08:17.579Z,18.50
2018-10-19T20:10:52.893Z,17.93
2018-10-19T20:13:28.260Z,19.53
2018-10-19T20:16:03.077Z,18.80
2018-10-19T20:18:38.714Z,20.27
2018-10-19T20:21:08.511Z,18.90
2018-10-19T20:23:43.844Z,20.50
2018-10-19T20:26:19.130Z,19.33
2018-10-19T20:28:54.873Z,22.00
2018-10-19T20:31:30.837Z,20.60
2018-10-19T20:34:02.446Z,20.20
2018-10-19T20:36:37.329Z,20.07
2018-10-19T20:39:13.396Z,21.40
2018-10-19T20:41:49.231Z,19.73
2018-10-19T20:44:25.589Z,19.03
2018-10-19T20:47:00.566Z,20.03
2018-10-19T20:49:36.143Z,20.33
2018-10-19T20:52:11.138Z,21.13
2018-10-19T20:54:46.708Z,19.57
2018-10-19T20:57:22.082Z,20.43
2018-10-19T20:59:57.191Z,19.97
2018-10-19T21:02:32.672Z,19.93
2018-10-19T21:05:09.435Z,19.93
2018-10-19T21:07:51.991Z,19.00
2018-10-19T21:10:27.370Z,19.80
2018-10-19T21:13:03.091Z,19.53
2018-10-19T21:15:38.393Z,19.40
2018-10-19T21:18:14.149Z,18.20
2018-10-19T21:20:49.213Z,18.00
2018-10-19T21:23:24.449Z,17.37
2018-10-19T21:25:59.606Z,17.53
2018-10-19T21:28:35.360Z,17.57
2018-10-19T21:31:10.491Z,16.40
2018-10-19T21:33:46.115Z,17.90
2018-10-19T21:36:21.846Z,16.97
2018-10-19T21:39:03.917Z,15.83
2018-10-19T21:41:39.125Z,16.23
2018-10-19T21:44:14.470Z,15.50
2018-10-19T21:46:49.757Z,15.83
2018-10-19T21:49:24.844Z,15.60
2018-10-19T21:51:54.580Z,15.27
2018-10-19T21:54:29.950Z,15.00
2018-10-19T21:57:05.259Z,16.07
2018-10-19T21:59:40.365Z,15.60
2018-10-19T22:02:15.550Z,14.27
2018-10-19T22:04:51.277Z,15.03
2018-10-19T22:07:26.959Z,14.07
2018-10-19T22:10:02.536Z,14.70
2018-10-19T22:12:37.865Z,14.57
2018-10-19T22:15:12.749Z,14.00
2018-10-19T22:17:47.878Z,14.07
2018-10-19T22:20:22.768Z,14.47
2018-10-19T22:22:57.992Z,14.00
2018-10-19T22:25:32.846Z,14.53
2018-10-19T22:28:08.044Z,14.37
2018-10-19T22:30:43.489Z,14.23
2018-10-19T22:33:18.299Z,13.53
2018-10-19T22:35:53.624Z,15.10
2018-10-19T22:38:29.394Z,14.40
2018-10-19T22:41:04.483Z,14.50
2018-10-19T22:43:39.935Z,14.73
2018-10-19T22:46:14.870Z,14.63
2018-10-19T22:48:50.459Z,14.30
2018-10-19T22:51:25.597Z,13.07
2018-10-19T22:54:01.085Z,14.93
2018-10-19T22:56:36.482Z,15.47
2018-10-19T22:59:11.586Z,14.80
2018-10-19T23:01:46.389Z,14.20
2018-10-19T23:04:21.510Z,14.20
2018-10-19T23:06:59.667Z,14.70
2018-10-19T23:09:34.809Z,15.23
2018-10-19T23:12:09.817Z,14.10
2018-10-19T23:14:45.048Z,13.80
2018-10-19T23:17:20.377Z,14.33
2018-10-19T23:19:55.532Z,13.67
2018-10-19T23:22:31.059Z,14.50
2018-10-19T23:25:07.345Z,14.80
2018-10-19T23:27:42.584Z,14.70
2018-10-19T23:30:17.655Z,14.80
2018-10-19T23:32:52.678Z,14.60
2018-10-19T23:35:27.618Z,13.23
2018-10-19T23:38:02.826Z,15.70
2018-10-19T23:40:38.277Z,14.63
2018-10-19T23:43:13.295Z,13.90
2018-10-19T23:45:48.735Z,15.50
2018-10-19T23:48:23.812Z,14.90
2018-10-19T23:50:59.017Z,14.30
2018-10-19T23:53:28.520Z,14.47
2018-10-19T23:56:03.234Z,14.87
2018-10-19T23:58:39.245Z,14.83
